Time;durP1;ratioP1;P1;durP2;ratioP2;P2;SDS_P1;SDS_P2;PMS_P1;PMS_P2;Temp;Humidity;BMP_temperature;BMP_pressure;BME280_temperature;BME280_humidity;BME280_pressure;Samples;Min_cycle;Max_cycle;Signal;HPM_P1;HPM_P2
2023/04/19 00:01:19;;;;;;;2.80;2.60;;;;;;;;;;6216401;23;20378;-66
2023/04/19 00:03:45;;;;;;;3.47;3.37;;;;;;;;;;6216137;23;20375;-66
2023/04/19 00:06:14;;;;;;;3.63;3.53;;;;;;;;;;6216389;23;20368;-67
2023/04/19 00:08:40;;;;;;;11.53;3.90;;;;;;;;;;6217346;23;20375;-66
2023/04/19 00:11:07;;;;;;;4.90;3.27;;;;;;;;;;6216414;23;20376;-66
2023/04/19 00:13:33;;;;;;;3.10;3.00;;;;;;;;;;6216253;23;20379;-66
2023/04/19 00:15:59;;;;;;;2.87;2.80;;;;;;;;;;6216275;23;20871;-66
2023/04/19 00:18:24;;;;;;;2.87;2.87;;;;;;;;;;6215953;23;20375;-66
2023/04/19 00:20:51;;;;;;;4.10;3.90;;;;;;;;;;6216207;23;20506;-66
2023/04/19 00:23:16;;;;;;;3.77;3.67;;;;;;;;;;6215971;23;20367;-66
2023/04/19 00:25:42;;;;;;;3.97;3.77;;;;;;;;;;6216259;23;20745;-66
2023/04/19 00:28:08;;;;;;;3.10;3.07;;;;;;;;;;6216025;23;20435;-66
2023/04/19 00:30:34;;;;;;;3.90;3.80;;;;;;;;;;6216807;23;20375;-66
2023/04/19 00:33:00;;;;;;;4.37;4.00;;;;;;;;;;6215393;23;20860;-66
2023/04/19 00:35:26;;;;;;;3.33;3.23;;;;;;;;;;6215793;23;20367;-66
2023/04/19 00:37:52;;;;;;;3.80;3.43;;;;;;;;;;6215875;23;20441;-66
2023/04/19 00:40:18;;;;;;;3.50;3.40;;;;;;;;;;6216165;23;20371;-66
2023/04/19 00:42:44;;;;;;;4.63;4.43;;;;;;;;;;6215539;23;20431;-66
2023/04/19 00:45:11;;;;;;;4.43;4.20;;;;;;;;;;6216170;23;20385;-66
2023/04/19 00:47:37;;;;;;;5.07;4.60;;;;;;;;;;6214018;23;20434;-66
2023/04/19 00:50:03;;;;;;;4.27;4.07;;;;;;;;;;6216005;23;20383;-66
2023/04/19 00:52:30;;;;;;;4.53;4.23;;;;;;;;;;6215991;23;20413;-66
2023/04/19 00:54:58;;;;;;;4.73;4.53;;;;;;;;;;6216319;23;20378;-66
2023/04/19 00:57:24;;;;;;;4.27;3.97;;;;;;;;;;6215855;23;20367;-66
2023/04/19 00:59:50;;;;;;;4.50;4.30;;;;;;;;;;6215945;23;20375;-66
2023/04/19 01:02:17;;;;;;;6.37;4.80;;;;;;;;;;6215581;23;20363;-66
2023/04/19 01:04:43;;;;;;;4.17;4.07;;;;;;;;;;6215515;23;20375;-66
2023/04/19 01:07:09;;;;;;;4.10;4.00;;;;;;;;;;6215409;23;20921;-66
2023/04/19 01:09:39;;;;;;;5.10;4.80;;;;;;;;;;6215543;23;20371;-66
2023/04/19 01:12:05;;;;;;;4.20;3.90;;;;;;;;;;6215693;23;20386;-66
2023/04/19 01:14:31;;;;;;;4.60;4.40;;;;;;;;;;6215438;23;20399;-67
2023/04/19 01:16:57;;;;;;;4.00;3.90;;;;;;;;;;6215478;23;20379;-66
2023/04/19 01:19:23;;;;;;;4.33;4.13;;;;;;;;;;6215510;23;20394;-66
2023/04/19 01:21:51;;;;;;;4.27;4.00;;;;;;;;;;6215619;23;20391;-66
2023/04/19 01:24:17;;;;;;;4.77;4.47;;;;;;;;;;6215844;23;20685;-66
2023/04/19 01:26:43;;;;;;;5.00;4.60;;;;;;;;;;6215728;23;20923;-66
2023/04/19 01:29:09;;;;;;;4.20;4.00;;;;;;;;;;6216390;23;20387;-66
2023/04/19 01:31:35;;;;;;;4.53;4.13;;;;;;;;;;6215682;23;20410;-67
2023/04/19 01:34:01;;;;;;;3.93;3.73;;;;;;;;;;6215292;23;20386;-66
2023/04/19 01:36:27;;;;;;;4.53;4.23;;;;;;;;;;6215738;23;20375;-66
2023/04/19 01:38:53;;;;;;;4.63;4.40;;;;;;;;;;6215287;23;20372;-66
2023/04/19 01:41:20;;;;;;;3.80;3.50;;;;;;;;;;6215348;23;20466;-66
2023/04/19 01:43:46;;;;;;;4.90;4.60;;;;;;;;;;6216570;23;20471;-66
2023/04/19 01:46:12;;;;;;;4.33;4.17;;;;;;;;;;6217392;23;20383;-66
2023/04/19 01:48:38;;;;;;;4.03;3.83;;;;;;;;;;6217406;23;20371;-66
2023/04/19 01:51:04;;;;;;;3.83;3.73;;;;;;;;;;6217292;23;20409;-66
2023/04/19 01:53:30;;;;;;;4.90;4.70;;;;;;;;;;6217410;23;20371;-66
2023/04/19 01:55:56;;;;;;;3.90;3.80;;;;;;;;;;6217344;23;20370;-66
2023/04/19 01:58:22;;;;;;;5.73;5.20;;;;;;;;;;6217368;23;20367;-66
2023/04/19 02:00:48;;;;;;;3.97;3.77;;;;;;;;;;6217169;23;20425;-66
2023/04/19 02:03:14;;;;;;;4.53;4.37;;;;;;;;;;6217041;23;20386;-66
2023/04/19 02:05:40;;;;;;;4.97;4.47;;;;;;;;;;6217661;23;20378;-66
2023/04/19 02:08:06;;;;;;;4.07;3.80;;;;;;;;;;6217177;23;20807;-66
2023/04/19 02:10:32;;;;;;;4.70;4.30;;;;;;;;;;6217429;23;20372;-66
2023/04/19 02:12:58;;;;;;;4.87;4.50;;;;;;;;;;6217341;23;20379;-67
2023/04/19 02:15:24;;;;;;;4.60;4.40;;;;;;;;;;6215607;23;20421;-66
2023/04/19 02:17:50;;;;;;;5.23;4.87;;;;;;;;;;6217503;23;20704;-66
2023/04/19 02:20:15;;;;;;;4.37;4.23;;;;;;;;;;6217029;23;20783;-66
2023/04/19 02:22:42;;;;;;;3.90;3.80;;;;;;;;;;6217161;23;20474;-66
2023/04/19 02:25:08;;;;;;;4.33;4.13;;;;;;;;;;6217836;23;20375;-66
2023/04/19 02:27:34;;;;;;;3.33;3.13;;;;;;;;;;6217371;23;20466;-66
2023/04/19 02:30:00;;;;;;;3.83;3.70;;;;;;;;;;6217112;23;20936;-66
2023/04/19 02:32:26;;;;;;;5.03;4.83;;;;;;;;;;6217506;23;20383;-66
2023/04/19 02:34:52;;;;;;;4.30;4.10;;;;;;;;;;6215389;23;21015;-66
2023/04/19 02:37:18;;;;;;;5.23;4.83;;;;;;;;;;6217120;23;20398;-66
2023/04/19 02:39:45;;;;;;;5.07;4.63;;;;;;;;;;6217000;23;20389;-66
2023/04/19 02:42:11;;;;;;;8.13;4.60;;;;;;;;;;6216728;23;20505;-66
2023/04/19 02:44:37;;;;;;;4.53;4.33;;;;;;;;;;6217995;23;20729;-66
2023/04/19 02:47:03;;;;;;;4.57;4.37;;;;;;;;;;6217120;23;20954;-66
2023/04/19 02:49:35;;;;;;;4.90;4.53;;;;;;;;;;6216789;23;20841;-66
2023/04/19 02:52:01;;;;;;;4.47;4.10;;;;;;;;;;6217123;23;20371;-66
2023/04/19 02:54:27;;;;;;;4.70;4.40;;;;;;;;;;6216387;23;20371;-66
2023/04/19 02:56:53;;;;;;;4.13;4.03;;;;;;;;;;6217134;23;20442;-66
2023/04/19 02:59:19;;;;;;;3.80;3.70;;;;;;;;;;6216765;23;20382;-67
2023/04/19 03:01:45;;;;;;;5.23;5.00;;;;;;;;;;6216659;23;20446;-66
2023/04/19 03:04:11;;;;;;;4.17;3.87;;;;;;;;;;6216623;23;20380;-66
2023/04/19 03:06:37;;;;;;;5.33;5.03;;;;;;;;;;6216892;23;20485;-66
2023/04/19 03:09:03;;;;;;;5.17;4.77;;;;;;;;;;6217019;23;20857;-66
2023/04/19 03:11:29;;;;;;;5.17;4.80;;;;;;;;;;6216607;23;20767;-66
2023/04/19 03:13:55;;;;;;;4.83;4.53;;;;;;;;;;6216510;23;20407;-66
2023/04/19 03:16:21;;;;;;;5.10;4.90;;;;;;;;;;6217009;23;20383;-66
2023/04/19 03:18:47;;;;;;;5.00;4.80;;;;;;;;;;6216941;23;20390;-66
2023/04/19 03:21:13;;;;;;;4.67;4.47;;;;;;;;;;6216516;23;20870;-66
2023/04/19 03:23:39;;;;;;;4.67;4.37;;;;;;;;;;6216830;23;20367;-66
2023/04/19 03:29:08;;;;;;;4.27;4.07;;;;;;;;;;6216697;23;20386;-66
2023/04/19 03:31:34;;;;;;;4.23;4.13;;;;;;;;;;6216425;23;20371;-66
2023/04/19 03:34:00;;;;;;;4.70;4.40;;;;;;;;;;6216874;23;20377;-66
2023/04/19 03:36:26;;;;;;;4.80;4.57;;;;;;;;;;6216555;23;20860;-66
2023/04/19 03:38:52;;;;;;;5.60;5.07;;;;;;;;;;6216916;23;20378;-66
2023/04/19 03:41:23;;;;;;;4.50;4.40;;;;;;;;;;6216451;23;20398;-66
2023/04/19 03:43:49;;;;;;;6.20;4.80;;;;;;;;;;6216347;23;20454;-66
2023/04/19 03:46:15;;;;;;;5.10;4.90;;;;;;;;;;6216662;23;20876;-66
2023/04/19 03:48:41;;;;;;;4.20;4.10;;;;;;;;;;6216590;23;20417;-66
2023/04/19 03:51:07;;;;;;;3.83;3.73;;;;;;;;;;6216493;23;20367;-66
2023/04/19 03:53:33;;;;;;;4.53;4.33;;;;;;;;;;6216641;23;20413;-66
2023/04/19 03:55:59;;;;;;;4.97;4.80;;;;;;;;;;6216216;23;20749;-66
2023/04/19 03:58:24;;;;;;;5.53;5.23;;;;;;;;;;6216590;23;20402;-66
2023/04/19 04:00:50;;;;;;;4.63;4.43;;;;;;;;;;6216201;23;20367;-66
2023/04/19 04:03:16;;;;;;;4.17;4.07;;;;;;;;;;6216144;23;20403;-66
2023/04/19 04:05:42;;;;;;;3.90;3.80;;;;;;;;;;6216605;23;20858;-66
2023/04/19 04:08:08;;;;;;;4.53;4.40;;;;;;;;;;6216099;23;20430;-66
2023/04/19 04:10:34;;;;;;;4.80;4.40;;;;;;;;;;6216195;23;20446;-66
2023/04/19 04:13:00;;;;;;;4.60;4.37;;;;;;;;;;6216558;23;20438;-66
2023/04/19 04:15:26;;;;;;;5.80;5.30;;;;;;;;;;6216200;23;20429;-66
2023/04/19 04:17:52;;;;;;;6.10;5.80;;;;;;;;;;6216406;23;20388;-66
2023/04/19 04:20:18;;;;;;;5.20;5.00;;;;;;;;;;6216130;23;20403;-66
2023/04/19 04:22:46;;;;;;;5.20;4.90;;;;;;;;;;6216371;23;20390;-66
2023/04/19 04:25:12;;;;;;;5.40;4.70;;;;;;;;;;6216561;23;20387;-66
2023/04/19 04:27:38;;;;;;;4.90;4.70;;;;;;;;;;6214241;23;20549;-66
2023/04/19 04:30:05;;;;;;;5.43;5.03;;;;;;;;;;6216149;23;20397;-66
2023/04/19 04:32:34;;;;;;;4.73;4.30;;;;;;;;;;6216341;23;20386;-66
2023/04/19 04:35:00;;;;;;;4.90;4.80;;;;;;;;;;6216232;23;20390;-66
2023/04/19 04:37:26;;;;;;;5.13;4.87;;;;;;;;;;6216251;23;20383;-66
2023/04/19 04:39:52;;;;;;;5.80;5.40;;;;;;;;;;6216224;23;20901;-66
2023/04/19 04:42:20;;;;;;;5.47;5.17;;;;;;;;;;6216196;23;20807;-66
2023/04/19 04:44:46;;;;;;;5.93;5.43;;;;;;;;;;6216276;23;20418;-66
2023/04/19 04:47:13;;;;;;;7.17;6.57;;;;;;;;;;6216065;23;20753;-66
2023/04/19 04:49:39;;;;;;;6.40;5.80;;;;;;;;;;6215692;23;20440;-66
2023/04/19 04:52:05;;;;;;;5.43;5.20;;;;;;;;;;6215835;23;20367;-66
2023/04/19 04:54:31;;;;;;;5.17;4.87;;;;;;;;;;6216120;23;20677;-66
2023/04/19 04:56:58;;;;;;;6.30;5.60;;;;;;;;;;6216110;23;20903;-66
2023/04/19 04:59:24;;;;;;;6.10;5.70;;;;;;;;;;6216487;23;20433;-66
2023/04/19 05:01:50;;;;;;;8.50;7.87;;;;;;;;;;6216255;23;20371;-66
2023/04/19 05:04:16;;;;;;;5.90;5.43;;;;;;;;;;6215952;23;20401;-66
2023/04/19 05:06:43;;;;;;;5.77;5.47;;;;;;;;;;6215981;23;20514;-66
2023/04/19 05:09:09;;;;;;;6.83;6.20;;;;;;;;;;6215728;23;20907;-66
2023/04/19 05:11:35;;;;;;;5.27;4.97;;;;;;;;;;6216241;23;20379;-66
2023/04/19 05:14:01;;;;;;;5.00;4.80;;;;;;;;;;6215985;23;20466;-66
2023/04/19 05:16:27;;;;;;;6.73;5.73;;;;;;;;;;6215582;23;20382;-66
2023/04/19 05:18:53;;;;;;;7.40;6.73;;;;;;;;;;6215379;23;20363;-66
2023/04/19 05:21:19;;;;;;;6.03;5.50;;;;;;;;;;6215576;23;20387;-66
2023/04/19 05:23:45;;;;;;;7.13;6.57;;;;;;;;;;6215512;23;20375;-66
2023/04/19 05:26:14;;;;;;;6.77;6.27;;;;;;;;;;6215433;23;20873;-66
2023/04/19 05:28:40;;;;;;;5.03;4.83;;;;;;;;;;6215902;23;20458;-66
2023/04/19 05:31:06;;;;;;;6.27;5.87;;;;;;;;;;6215785;23;20389;-66
2023/04/19 05:33:32;;;;;;;7.00;6.47;;;;;;;;;;6215671;23;20450;-66
2023/04/19 05:35:58;;;;;;;5.20;4.90;;;;;;;;;;6215797;23;20395;-66
2023/04/19 05:38:24;;;;;;;4.90;4.63;;;;;;;;;;6215826;23;20375;-66
2023/04/19 05:40:50;;;;;;;5.67;5.47;;;;;;;;;;6215411;23;20367;-66
2023/04/19 05:43:16;;;;;;;5.30;5.00;;;;;;;;;;6215500;23;20419;-66
2023/04/19 05:45:42;;;;;;;5.53;5.23;;;;;;;;;;6214010;23;20709;-66
2023/04/19 05:48:07;;;;;;;5.63;5.37;;;;;;;;;;6215203;23;20431;-65
2023/04/19 05:50:35;;;;;;;5.33;5.00;;;;;;;;;;6215663;23;20363;-66
2023/04/19 05:53:01;;;;;;;4.93;4.70;;;;;;;;;;6215775;23;20458;-66
2023/04/19 05:55:27;;;;;;;4.87;4.73;;;;;;;;;;6215399;23;20383;-66
2023/04/19 05:57:53;;;;;;;7.50;5.90;;;;;;;;;;6215360;23;20458;-66
2023/04/19 06:00:19;;;;;;;6.57;5.97;;;;;;;;;;6215293;23;20375;-66
2023/04/19 06:02:45;;;;;;;6.07;5.70;;;;;;;;;;6215666;23;20387;-66
2023/04/19 06:05:11;;;;;;;7.60;5.03;;;;;;;;;;6215668;23;20450;-68
2023/04/19 06:07:37;;;;;;;5.57;5.37;;;;;;;;;;6214948;23;20438;-66
2023/04/19 06:10:04;;;;;;;5.00;4.80;;;;;;;;;;6215985;23;20367;-66
2023/04/19 06:12:30;;;;;;;7.73;6.07;;;;;;;;;;6215388;23;20379;-66
2023/04/19 06:14:56;;;;;;;5.73;5.40;;;;;;;;;;6215398;23;20829;-66
2023/04/19 06:17:23;;;;;;;5.30;5.00;;;;;;;;;;6215200;23;20383;-66
2023/04/19 06:19:50;;;;;;;5.67;5.27;;;;;;;;;;6215209;23;20371;-66
2023/04/19 06:22:16;;;;;;;5.27;4.93;;;;;;;;;;6215711;23;20375;-66
2023/04/19 06:24:44;;;;;;;5.33;5.03;;;;;;;;;;6215243;23;20678;-66
2023/04/19 06:27:10;;;;;;;6.97;6.47;;;;;;;;;;6215196;23;20427;-66
2023/04/19 06:29:36;;;;;;;5.77;5.10;;;;;;;;;;6215437;23;20374;-66
2023/04/19 06:32:02;;;;;;;5.57;5.23;;;;;;;;;;6217528;23;20409;-66
2023/04/19 06:34:28;;;;;;;5.43;5.23;;;;;;;;;;6216883;23;20406;-66
2023/04/19 06:36:54;;;;;;;14.93;5.33;;;;;;;;;;6216998;23;20371;-67
2023/04/19 06:39:20;;;;;;;6.03;5.53;;;;;;;;;;6217128;23;20394;-65
2023/04/19 06:41:46;;;;;;;5.30;5.00;;;;;;;;;;6217311;23;20371;-66
2023/04/19 06:44:12;;;;;;;6.20;5.70;;;;;;;;;;6215679;23;20398;-65
2023/04/19 06:46:39;;;;;;;5.97;5.57;;;;;;;;;;6216947;23;20757;-66
2023/04/19 06:49:05;;;;;;;6.67;6.10;;;;;;;;;;6217211;23;20445;-66
2023/04/19 06:51:31;;;;;;;7.93;7.23;;;;;;;;;;6216886;23;20410;-66
2023/04/19 06:53:57;;;;;;;10.03;7.83;;;;;;;;;;6216839;23;20919;-67
2023/04/19 06:56:44;;;;;;;18.33;7.27;;;;;;;;;;6217015;23;20370;-67
2023/04/19 06:59:10;;;;;;;14.23;7.30;;;;;;;;;;6217243;23;20392;-66
2023/04/19 07:01:36;;;;;;;8.53;7.73;;;;;;;;;;6216795;23;20383;-67
2023/04/19 07:04:02;;;;;;;9.60;8.63;;;;;;;;;;6216716;23;20386;-66
2023/04/19 07:06:28;;;;;;;8.10;7.33;;;;;;;;;;6216708;23;20752;-66
2023/04/19 07:08:54;;;;;;;10.90;7.67;;;;;;;;;;6217223;23;20826;-66
2023/04/19 07:11:20;;;;;;;7.77;7.17;;;;;;;;;;6216663;23;20438;-66
2023/04/19 07:13:46;;;;;;;7.13;6.60;;;;;;;;;;6217095;23;20383;-67
2023/04/19 07:16:13;;;;;;;7.73;7.17;;;;;;;;;;6217630;23;20387;-67
2023/04/19 07:18:39;;;;;;;7.40;6.70;;;;;;;;;;6216479;23;20700;-66
2023/04/19 07:21:05;;;;;;;7.03;6.50;;;;;;;;;;6216632;23;20386;-66
2023/04/19 07:23:31;;;;;;;6.93;6.43;;;;;;;;;;6216920;23;20768;-66
2023/04/19 07:25:57;;;;;;;6.93;6.33;;;;;;;;;;6217744;23;20393;-66
2023/04/19 07:28:23;;;;;;;8.83;7.77;;;;;;;;;;6216028;23;20526;-66
2023/04/19 07:30:49;;;;;;;7.40;6.70;;;;;;;;;;6216280;23;20375;-66
2023/04/19 07:33:15;;;;;;;8.63;6.57;;;;;;;;;;6216693;23;20880;-66
2023/04/19 07:35:41;;;;;;;7.33;6.50;;;;;;;;;;6216515;23;20856;-66
2023/04/19 07:38:07;;;;;;;7.70;7.10;;;;;;;;;;6217116;23;20382;-66
2023/04/19 07:40:33;;;;;;;7.00;6.50;;;;;;;;;;6216003;23;20386;-66
2023/04/19 07:42:59;;;;;;;6.73;6.23;;;;;;;;;;6216238;23;20442;-66
2023/04/19 07:45:25;;;;;;;7.60;6.90;;;;;;;;;;6216319;23;20372;-66
2023/04/19 07:47:51;;;;;;;8.30;7.47;;;;;;;;;;6216220;23;20431;-66
2023/04/19 07:50:17;;;;;;;7.50;7.00;;;;;;;;;;6216318;23;20377;-66
2023/04/19 07:52:43;;;;;;;7.27;6.63;;;;;;;;;;6216619;23;20394;-66
2023/04/19 07:55:09;;;;;;;7.73;6.93;;;;;;;;;;6216649;23;20375;-67
2023/04/19 07:57:35;;;;;;;8.83;7.93;;;;;;;;;;6214343;23;20391;-66
2023/04/19 08:00:01;;;;;;;7.90;7.20;;;;;;;;;;6216535;23;20398;-66
2023/04/19 08:02:27;;;;;;;7.43;6.83;;;;;;;;;;6216937;23;20391;-66
2023/04/19 08:04:53;;;;;;;9.10;8.17;;;;;;;;;;6216228;23;20406;-66
2023/04/19 08:07:20;;;;;;;7.80;7.10;;;;;;;;;;6216057;23;20423;-66
2023/04/19 08:09:46;;;;;;;7.20;6.57;;;;;;;;;;6216499;23;20681;-66
2023/04/19 08:12:12;;;;;;;8.43;7.63;;;;;;;;;;6216554;23;20860;-66
2023/04/19 08:14:39;;;;;;;9.00;8.13;;;;;;;;;;6216457;23;20383;-66
2023/04/19 08:17:06;;;;;;;9.30;7.70;;;;;;;;;;6216475;23;20414;-66
2023/04/19 08:19:32;;;;;;;8.53;7.73;;;;;;;;;;6216473;23;20379;-66
2023/04/19 08:21:58;;;;;;;8.00;7.27;;;;;;;;;;6216447;23;20465;-67
2023/04/19 08:24:24;;;;;;;8.67;7.77;;;;;;;;;;6216483;23;20466;-67
2023/04/19 08:26:53;;;;;;;8.30;7.60;;;;;;;;;;6216314;23;20510;-66
2023/04/19 08:29:21;;;;;;;8.30;7.47;;;;;;;;;;6216312;23;20383;-66
2023/04/19 08:31:47;;;;;;;7.60;6.93;;;;;;;;;;6216380;23;20414;-66
2023/04/19 08:34:13;;;;;;;10.70;7.53;;;;;;;;;;6215698;23;20862;-66
2023/04/19 08:36:39;;;;;;;10.57;6.13;;;;;;;;;;6216621;23;20422;-68
2023/04/19 08:39:05;;;;;;;6.27;5.90;;;;;;;;;;6216043;23;20833;-67
2023/04/19 08:41:31;;;;;;;10.13;6.40;;;;;;;;;;6215700;23;20822;-67
2023/04/19 08:43:58;;;;;;;6.67;6.27;;;;;;;;;;6215429;23;20760;-66
2023/04/19 08:46:25;;;;;;;7.27;6.57;;;;;;;;;;6215867;23;20406;-67
2023/04/19 08:48:51;;;;;;;7.83;7.03;;;;;;;;;;6214157;23;20724;-66
2023/04/19 08:51:18;;;;;;;7.73;7.03;;;;;;;;;;6216077;23;20382;-67
2023/04/19 08:53:44;;;;;;;8.30;7.70;;;;;;;;;;6215727;23;20698;-67
2023/04/19 08:56:11;;;;;;;7.37;6.50;;;;;;;;;;6216122;23;20398;-66
2023/04/19 08:58:37;;;;;;;6.97;6.40;;;;;;;;;;6216092;23;20384;-67
2023/04/19 09:01:07;;;;;;;6.23;5.90;;;;;;;;;;6216017;23;20375;-66
2023/04/19 09:03:33;;;;;;;6.47;5.80;;;;;;;;;;6215972;23;20482;-66
2023/04/19 09:06:00;;;;;;;7.07;6.47;;;;;;;;;;6216610;23;20390;-66
2023/04/19 09:08:28;;;;;;;7.63;6.87;;;;;;;;;;6215547;23;20427;-66
2023/04/19 09:11:01;;;;;;;6.87;6.37;;;;;;;;;;6215973;23;20425;-67
2023/04/19 09:13:27;;;;;;;6.77;6.17;;;;;;;;;;6189576;23;20371;-66
2023/04/19 09:15:55;;;;;;;7.33;6.80;;;;;;;;;;6215578;23;20876;-67
2023/04/19 09:18:23;;;;;;;10.13;7.70;;;;;;;;;;6215917;23;20367;-66
2023/04/19 09:20:50;;;;;;;8.03;7.27;;;;;;;;;;6215809;23;20368;-67
2023/04/19 09:23:16;;;;;;;8.00;7.23;;;;;;;;;;6215566;23;20846;-67
2023/04/19 09:25:52;;;;;;;6.57;5.97;;;;;;;;;;6216157;23;20367;-66
2023/04/19 09:28:18;;;;;;;8.00;6.70;;;;;;;;;;6215400;23;20434;-67
2023/04/19 09:30:44;;;;;;;8.13;7.43;;;;;;;;;;6215806;23;20379;-67
2023/04/19 09:33:10;;;;;;;8.17;7.57;;;;;;;;;;6215852;23;20703;-67
2023/04/19 09:35:43;;;;;;;8.53;7.43;;;;;;;;;;6216084;23;20433;-67
2023/04/19 09:38:09;;;;;;;6.60;6.17;;;;;;;;;;6215791;23;20446;-67
2023/04/19 09:40:35;;;;;;;6.40;6.03;;;;;;;;;;6215431;23;20817;-67
2023/04/19 09:43:02;;;;;;;7.63;7.03;;;;;;;;;;6215276;23;20473;-68
2023/04/19 09:45:39;;;;;;;6.07;5.60;;;;;;;;;;6215475;23;20434;-67
2023/04/19 09:48:08;;;;;;;5.50;5.10;;;;;;;;;;6215307;23;20426;-66
2023/04/19 09:50:35;;;;;;;6.33;5.83;;;;;;;;;;6215388;23;20382;-67
2023/04/19 09:53:01;;;;;;;5.13;4.73;;;;;;;;;;6215314;23;20861;-67
2023/04/19 09:55:27;;;;;;;5.17;4.97;;;;;;;;;;6215860;23;20678;-66
2023/04/19 09:57:54;;;;;;;5.13;4.93;;;;;;;;;;6215301;23;20912;-66
2023/04/19 10:00:20;;;;;;;4.70;4.50;;;;;;;;;;6215633;23;20387;-66
2023/04/19 10:02:53;;;;;;;3.83;3.53;;;;;;;;;;6215360;23;20363;-66
2023/04/19 10:05:19;;;;;;;4.67;4.47;;;;;;;;;;6217292;23;20394;-61
2023/04/19 10:07:46;;;;;;;5.03;4.40;;;;;;;;;;6217193;23;20445;-67
2023/04/19 10:10:12;;;;;;;3.80;3.70;;;;;;;;;;6217683;23;20430;-68
2023/04/19 10:12:38;;;;;;;5.07;4.67;;;;;;;;;;6216361;23;20909;-67
2023/04/19 10:15:06;;;;;;;4.27;4.00;;;;;;;;;;6217612;23;20375;-66
2023/04/19 10:17:32;;;;;;;6.83;4.47;;;;;;;;;;6217508;23;20379;-66
2023/04/19 10:20:01;;;;;;;4.03;3.83;;;;;;;;;;6217666;23;20375;-66
2023/04/19 10:22:27;;;;;;;4.43;4.23;;;;;;;;;;6217293;23;20470;-66
2023/04/19 10:25:09;;;;;;;5.57;5.17;;;;;;;;;;6217219;23;20703;-67
2023/04/19 10:27:36;;;;;;;4.77;4.37;;;;;;;;;;6216991;23;20426;-66
2023/04/19 10:30:06;;;;;;;8.20;7.50;;;;;;;;;;6217122;23;20379;-66
2023/04/19 10:32:39;;;;;;;9.80;9.00;;;;;;;;;;6216420;23;20671;-66
2023/04/19 10:35:08;;;;;;;10.10;8.63;;;;;;;;;;6217178;23;20156;-66
2023/04/19 10:37:34;;;;;;;9.83;7.77;;;;;;;;;;6216986;23;20454;-66
2023/04/19 10:40:00;;;;;;;9.33;8.40;;;;;;;;;;6216940;23;20382;-66
2023/04/19 10:42:46;;;;;;;10.67;8.63;;;;;;;;;;6216722;23;20435;-66
2023/04/19 10:45:31;;;;;;;9.47;8.40;;;;;;;;;;6216955;23;20394;-67
2023/04/19 10:47:57;;;;;;;6.80;6.20;;;;;;;;;;6216832;23;20434;-67
2023/04/19 10:50:23;;;;;;;8.93;8.13;;;;;;;;;;6217276;23;20371;-67
2023/04/19 10:52:49;;;;;;;9.03;8.23;;;;;;;;;;6216794;23;20683;-65
2023/04/19 10:55:15;;;;;;;9.27;8.47;;;;;;;;;;6217247;23;20410;-66
2023/04/19 10:58:00;;;;;;;16.20;9.10;;;;;;;;;;6217283;23;20387;-66
2023/04/19 11:00:30;;;;;;;11.60;8.43;;;;;;;;;;6215300;23;20399;-66
2023/04/19 11:02:56;;;;;;;10.47;7.70;;;;;;;;;;6216932;23;20414;-66
2023/04/19 11:05:22;;;;;;;7.93;6.97;;;;;;;;;;6217876;23;20368;-65
2023/04/19 11:07:48;;;;;;;9.30;8.40;;;;;;;;;;6217629;23;20569;-66
2023/04/19 11:10:27;;;;;;;8.40;7.67;;;;;;;;;;6217073;23;20708;-66
2023/04/19 11:12:53;;;;;;;8.73;7.97;;;;;;;;;;6217158;23;20365;-65
2023/04/19 11:15:22;;;;;;;7.83;7.13;;;;;;;;;;6216785;23;20407;-66
2023/04/19 11:17:50;;;;;;;8.27;7.57;;;;;;;;;;6217015;23;20438;-66
2023/04/19 11:20:16;;;;;;;11.00;8.60;;;;;;;;;;6216661;23;20854;-66
2023/04/19 11:22:46;;;;;;;11.07;8.40;;;;;;;;;;6216857;23;20398;-66
2023/04/19 11:25:12;;;;;;;8.23;7.53;;;;;;;;;;6217332;23;20386;-66
2023/04/19 11:27:42;;;;;;;9.97;9.03;;;;;;;;;;6216832;23;20474;-66
2023/04/19 11:30:10;;;;;;;7.33;6.83;;;;;;;;;;6216491;23;20876;-66
2023/04/19 11:32:36;;;;;;;14.13;8.53;;;;;;;;;;6216641;23;20375;-66
2023/04/19 11:35:06;;;;;;;8.80;7.90;;;;;;;;;;6216775;23;20376;-65
2023/04/19 11:37:33;;;;;;;12.40;9.97;;;;;;;;;;6216519;23;20454;-67
2023/04/19 11:39:59;;;;;;;11.93;8.10;;;;;;;;;;6216319;23;20858;-66
2023/04/19 11:42:25;;;;;;;11.60;9.70;;;;;;;;;;6216565;23;20448;-67
2023/04/19 11:44:51;;;;;;;8.27;7.57;;;;;;;;;;6216818;23;20390;-66
2023/04/19 11:47:18;;;;;;;9.40;8.43;;;;;;;;;;6216289;23;20545;-65
2023/04/19 11:49:44;;;;;;;11.80;8.43;;;;;;;;;;6216402;23;20690;-65
2023/04/19 11:52:11;;;;;;;8.90;8.13;;;;;;;;;;6216425;23;20837;-65
2023/04/19 11:54:37;;;;;;;8.10;7.40;;;;;;;;;;6216803;23;20375;-66
2023/04/19 11:57:04;;;;;;;13.73;7.63;;;;;;;;;;6190339;23;20379;-67
2023/04/19 11:59:31;;;;;;;9.47;8.60;;;;;;;;;;6216607;23;20379;-66
2023/04/19 12:02:04;;;;;;;10.17;9.10;;;;;;;;;;6216416;23;20769;-66
2023/04/19 12:04:30;;;;;;;9.27;8.20;;;;;;;;;;6216980;23;20363;-67
2023/04/19 12:06:58;;;;;;;8.63;7.90;;;;;;;;;;6217296;23;20468;-66
2023/04/19 12:09:24;;;;;;;8.13;7.53;;;;;;;;;;6216524;23;20384;-66
2023/04/19 12:11:50;;;;;;;12.33;8.30;;;;;;;;;;6216454;23;20377;-66
2023/04/19 12:14:18;;;;;;;10.30;8.83;;;;;;;;;;6216232;23;20401;-66
2023/04/19 12:16:44;;;;;;;6.60;6.10;;;;;;;;;;6216315;23;20453;-66
2023/04/19 12:19:19;;;;;;;10.10;8.20;;;;;;;;;;6216516;23;20383;-66
2023/04/19 12:21:45;;;;;;;5.53;5.17;;;;;;;;;;6216537;23;20363;-66
2023/04/19 12:24:12;;;;;;;9.30;8.40;;;;;;;;;;6216196;23;20390;-66
2023/04/19 12:26:52;;;;;;;10.70;7.83;;;;;;;;;;6216131;23;20377;-66
2023/04/19 12:29:18;;;;;;;8.43;7.70;;;;;;;;;;6216043;23;20371;-65
2023/04/19 12:31:44;;;;;;;9.77;8.60;;;;;;;;;;6216053;23;20381;-66
2023/04/19 12:34:10;;;;;;;9.33;8.43;;;;;;;;;;6216207;23;20391;-65
2023/04/19 12:36:36;;;;;;;7.93;7.00;;;;;;;;;;6216242;23;20378;-65
2023/04/19 12:39:02;;;;;;;8.70;7.93;;;;;;;;;;6216175;23;20384;-65
2023/04/19 12:41:28;;;;;;;8.67;8.00;;;;;;;;;;6214350;23;20383;-65
2023/04/19 12:43:54;;;;;;;7.97;7.27;;;;;;;;;;6215608;23;20438;-69
2023/04/19 12:46:20;;;;;;;9.07;7.90;;;;;;;;;;6216337;23;20379;-65
2023/04/19 12:48:46;;;;;;;8.60;7.70;;;;;;;;;;6216112;23;20442;-65
2023/04/19 12:51:12;;;;;;;6.90;6.33;;;;;;;;;;6215795;23;20705;-65
2023/04/19 12:53:38;;;;;;;7.03;6.63;;;;;;;;;;6215544;23;20473;-67
2023/04/19 12:56:04;;;;;;;7.60;6.27;;;;;;;;;;6215776;23;20382;-66
2023/04/19 12:58:31;;;;;;;13.23;6.87;;;;;;;;;;6216087;23;20477;-65
2023/04/19 13:00:56;;;;;;;10.90;8.60;;;;;;;;;;6215924;23;20387;-66
2023/04/19 13:03:22;;;;;;;7.13;6.63;;;;;;;;;;6215134;23;20401;-65
2023/04/19 13:05:48;;;;;;;7.97;6.87;;;;;;;;;;6215704;23;20386;-65
2023/04/19 13:08:15;;;;;;;7.20;6.67;;;;;;;;;;6215781;23;20427;-65
2023/04/19 13:10:41;;;;;;;22.87;8.10;;;;;;;;;;6215517;23;20375;-66
2023/04/19 13:13:07;;;;;;;22.40;7.67;;;;;;;;;;6215957;23;20390;-65
2023/04/19 13:15:33;;;;;;;8.53;7.70;;;;;;;;;;6215867;23;20458;-65
2023/04/19 13:17:59;;;;;;;7.83;7.27;;;;;;;;;;6215501;23;20363;-65
2023/04/19 13:20:25;;;;;;;8.90;5.63;;;;;;;;;;6215282;23;20418;-65
2023/04/19 13:22:51;;;;;;;7.87;6.83;;;;;;;;;;6215830;23;20383;-65
2023/04/19 13:25:17;;;;;;;7.73;7.07;;;;;;;;;;6215548;23;20376;-65
2023/04/19 13:27:45;;;;;;;26.23;8.77;;;;;;;;;;6215099;23;20430;-66
2023/04/19 13:30:11;;;;;;;7.17;6.00;;;;;;;;;;6215578;23;20485;-65
2023/04/19 13:32:37;;;;;;;7.67;7.07;;;;;;;;;;6213770;23;20391;-65
2023/04/19 13:35:03;;;;;;;7.70;7.00;;;;;;;;;;6215952;23;20437;-67
2023/04/19 13:37:29;;;;;;;13.00;6.10;;;;;;;;;;6215861;23;20445;-66
2023/04/19 13:39:55;;;;;;;7.40;6.87;;;;;;;;;;6215656;23;20375;-67
2023/04/19 13:42:22;;;;;;;9.10;5.00;;;;;;;;;;6215310;23;20580;-66
2023/04/19 13:44:48;;;;;;;9.50;7.33;;;;;;;;;;6215451;23;20375;-67
2023/04/19 13:47:14;;;;;;;6.60;6.07;;;;;;;;;;6215328;23;20431;-65
2023/04/19 13:49:40;;;;;;;7.77;6.97;;;;;;;;;;6216094;23;20421;-66
2023/04/19 13:52:06;;;;;;;6.23;5.83;;;;;;;;;;6213613;23;20388;-66
2023/04/19 13:54:32;;;;;;;6.83;6.33;;;;;;;;;;6215494;23;20379;-65
2023/04/19 13:56:58;;;;;;;7.70;6.90;;;;;;;;;;6215478;23;20712;-65
2023/04/19 13:59:25;;;;;;;5.90;5.43;;;;;;;;;;6215208;23;20375;-66
2023/04/19 14:01:53;;;;;;;6.83;6.17;;;;;;;;;;6215189;23;20379;-65
2023/04/19 14:04:20;;;;;;;6.30;5.80;;;;;;;;;;6214862;23;20864;-65
2023/04/19 14:06:46;;;;;;;7.00;6.50;;;;;;;;;;6215274;23;20376;-65
2023/04/19 14:09:12;;;;;;;5.67;5.30;;;;;;;;;;6215469;23;20386;-66
2023/04/19 14:11:38;;;;;;;5.50;5.10;;;;;;;;;;6215636;23;20371;-66
2023/04/19 14:14:04;;;;;;;5.60;5.20;;;;;;;;;;6215256;23;20386;-64
2023/04/19 14:16:30;;;;;;;7.10;6.53;;;;;;;;;;6215562;23;20688;-65
2023/04/19 14:18:56;;;;;;;5.40;5.00;;;;;;;;;;6215764;23;20764;-65
2023/04/19 14:21:22;;;;;;;6.03;5.73;;;;;;;;;;6215582;23;20375;-65
2023/04/19 14:23:48;;;;;;;6.97;5.70;;;;;;;;;;6215463;23;20477;-65
2023/04/19 14:26:14;;;;;;;7.10;6.40;;;;;;;;;;6215147;23;20849;-66
2023/04/19 14:28:40;;;;;;;6.97;6.47;;;;;;;;;;6215006;23;20426;-66
2023/04/19 14:31:06;;;;;;;8.10;6.63;;;;;;;;;;6215348;23;20461;-66
2023/04/19 14:33:32;;;;;;;5.33;5.13;;;;;;;;;;6215074;23;20430;-66
2023/04/19 14:35:58;;;;;;;5.97;5.43;;;;;;;;;;6215302;23;20395;-66
2023/04/19 14:38:27;;;;;;;6.87;6.27;;;;;;;;;;6215815;23;20673;-66
2023/04/19 14:40:53;;;;;;;7.07;6.60;;;;;;;;;;6215406;23;20450;-66